ポドゴリツァ の空港の天気 - METARとTAF

ポドゴリツァ空港 ( LYPG / TGD ) - モンテネグロ ポドゴリツァ
飛行場実況気象(Metar)
観測時間04/24 18:30 CEST (04/24 16:30 UTC)
風向・風速南西 3m/s
視程10km以上
天気現象
なし
気温24℃
湿度34%
気圧1019hPa
METARLYPG 241630Z 23005KT 180V250 CAVOK 24/07 Q1019 NOSIG
過去の天気等 Google飛行場航空写真 Wunderground天気予報

過去48時間のMETAR

飛行場予報(TAF)
発表時間: 4/24 13:00 CEST (4/24 11:00 UTC)
予報対象時間: 24日14時 CEST ~ 25日14時 CEST
風向・風速南南東 3m/s
視程10km以上
少しの雲 雲底高度 1220m
TAF LYPG 241100Z 2412/2512 16006KT 9999 FEW040 TX25/2413Z TN12/2504Z